createdAt,value
2018-11-10T00:00:26.590Z,23.03
2018-11-10T00:02:54.935Z,25.27
2018-11-10T00:05:23.260Z,26.20
2018-11-10T00:07:51.659Z,21.50
2018-11-10T00:10:19.917Z,23.90
2018-11-10T00:12:48.270Z,24.60
2018-11-10T00:15:16.596Z,28.47
2018-11-10T00:17:44.929Z,20.60
2018-11-10T00:20:13.426Z,23.53
2018-11-10T00:22:41.600Z,23.53
2018-11-10T00:25:09.939Z,24.50
2018-11-10T00:27:38.278Z,21.93
2018-11-10T00:30:07.187Z,26.03
2018-11-10T00:32:34.939Z,22.83
2018-11-10T00:35:03.265Z,23.43
2018-11-10T00:37:31.596Z,23.83
2018-11-10T00:40:00.500Z,27.87
2018-11-10T00:42:28.858Z,22.50
2018-11-10T00:44:57.182Z,22.70
2018-11-10T00:47:25.516Z,21.47
2018-11-10T00:49:53.849Z,21.07
2018-11-10T00:52:22.241Z,24.40
2018-11-10T00:54:50.581Z,21.13
2018-11-10T00:57:18.636Z,21.73
2018-11-10T00:59:47.566Z,22.80
2018-11-10T01:02:15.910Z,21.43
2018-11-10T01:04:43.848Z,21.43
2018-11-10T01:07:12.770Z,19.13
2018-11-10T01:09:40.520Z,22.73
2018-11-10T01:12:09.353Z,22.57
2018-11-10T01:14:37.712Z,22.33
2018-11-10T01:17:06.625Z,23.33
2018-11-10T01:19:34.955Z,22.47
2018-11-10T01:22:02.714Z,22.67
2018-11-10T01:24:31.049Z,21.13
2018-11-10T01:26:59.407Z,21.63
2018-11-10T01:29:28.330Z,21.60
2018-11-10T01:31:56.668Z,21.17
2018-11-10T01:34:25.022Z,24.57
2018-11-10T01:36:52.786Z,21.63
2018-11-10T01:39:21.707Z,23.40
2018-11-10T01:41:50.080Z,21.50
2018-11-10T01:44:18.414Z,21.10
2018-11-10T01:46:46.987Z,21.77
2018-11-10T01:49:14.536Z,19.30
2018-11-10T01:51:42.872Z,22.43
2018-11-10T01:54:11.236Z,22.30
2018-11-10T01:56:40.142Z,20.10
2018-11-10T01:59:08.495Z,20.80
2018-11-10T02:01:36.246Z,22.53
2018-11-10T02:04:04.590Z,21.50
2018-11-10T02:06:33.521Z,24.60
2018-11-10T02:09:01.856Z,25.30
2018-11-10T02:11:30.186Z,27.90
2018-11-10T02:13:58.524Z,27.00
2018-11-10T02:16:26.844Z,21.50
2018-11-10T02:18:55.193Z,22.73
2018-11-10T02:21:23.544Z,22.37
2018-11-10T02:23:51.301Z,19.73
2018-11-10T02:26:20.220Z,21.50
2018-11-10T02:28:47.984Z,20.57
2018-11-10T02:31:16.897Z,20.87
2018-11-10T02:33:44.658Z,22.53
2018-11-10T02:36:13.580Z,21.30
2018-11-10T02:38:41.985Z,20.77
2018-11-10T02:41:10.347Z,21.63
2018-11-10T02:43:38.703Z,20.87
2018-11-10T02:46:06.466Z,23.47
2018-11-10T02:48:35.388Z,22.13
2018-11-10T02:51:03.712Z,21.83
2018-11-10T02:53:31.965Z,23.30
2018-11-10T02:56:00.419Z,20.50
2018-11-10T02:58:28.176Z,25.10
2018-11-10T03:00:57.100Z,23.07
2018-11-10T03:03:24.841Z,21.70
2018-11-10T03:05:53.181Z,21.37
2018-11-10T03:08:22.101Z,22.53
2018-11-10T03:10:50.481Z,24.20
2018-11-10T03:13:18.189Z,22.90
2018-11-10T03:15:47.101Z,22.00
2018-11-10T03:18:15.430Z,24.03
2018-11-10T03:20:43.761Z,20.87
2018-11-10T03:23:12.093Z,26.10
2018-11-10T03:25:40.427Z,23.87
2018-11-10T03:28:08.188Z,23.70
2018-11-10T03:30:37.094Z,22.63
2018-11-10T03:33:04.843Z,27.73
2018-11-10T03:35:33.776Z,22.77
2018-11-10T03:38:02.104Z,25.07
2018-11-10T03:40:30.436Z,26.27
2018-11-10T03:42:58.194Z,22.10
2018-11-10T03:45:27.422Z,25.63
2018-11-10T03:47:55.164Z,23.60
2018-11-10T03:50:23.514Z,25.37
2018-11-10T03:52:52.433Z,23.83
2018-11-10T03:55:20.192Z,24.90
2018-11-10T03:57:49.126Z,23.80
2018-11-10T04:00:17.486Z,27.20
2018-11-10T04:02:45.826Z,28.67
2018-11-10T04:05:14.165Z,26.70
2018-11-10T04:07:42.522Z,28.10
2018-11-10T04:10:10.865Z,29.47
2018-11-10T04:12:39.195Z,29.50
2018-11-10T04:15:06.941Z,32.23
2018-11-10T04:17:35.854Z,32.50
2018-11-10T04:20:04.196Z,33.60
2018-11-10T04:22:32.536Z,31.23
2018-11-10T04:25:00.876Z,29.60
2018-11-10T04:27:29.204Z,30.60
2018-11-10T04:29:57.541Z,29.33
2018-11-10T04:32:25.597Z,28.83
2018-11-10T04:34:53.940Z,31.63
2018-11-10T04:37:22.268Z,29.87
2018-11-10T04:39:50.603Z,31.90
2018-11-10T04:42:19.556Z,32.43
2018-11-10T04:44:47.891Z,33.53
2018-11-10T04:47:16.155Z,29.90
2018-11-10T04:49:44.594Z,29.70
2018-11-10T04:52:12.904Z,34.67
2018-11-10T04:54:41.237Z,35.60
2018-11-10T04:57:09.571Z,46.77
2018-11-10T04:59:37.347Z,36.60
2018-11-10T05:02:06.263Z,37.40
2018-11-10T05:04:34.010Z,39.10
2018-11-10T05:07:02.913Z,39.27
2018-11-10T05:09:31.254Z,38.43
2018-11-10T05:11:59.603Z,41.73
2018-11-10T05:14:27.943Z,37.40
2018-11-10T05:16:56.317Z,38.13
2018-11-10T05:19:24.648Z,37.03
2018-11-10T05:21:52.398Z,39.23
2018-11-10T05:24:20.733Z,41.50
2018-11-10T05:26:49.645Z,39.23
2018-11-10T05:29:17.388Z,44.73
2018-11-10T05:31:45.716Z,52.97
2018-11-10T05:34:14.045Z,52.93
2018-11-10T05:36:42.965Z,48.97
2018-11-10T05:39:10.718Z,53.43
2018-11-10T05:41:39.640Z,50.77
2018-11-10T05:44:07.566Z,49.43
2018-11-10T05:46:36.308Z,55.87
2018-11-10T05:49:04.441Z,51.10
2018-11-10T05:51:33.362Z,53.43
2018-11-10T05:54:01.724Z,52.10
2018-11-10T05:56:30.275Z,55.13
2018-11-10T05:58:58.388Z,54.33
2018-11-10T06:01:26.760Z,57.63
2018-11-10T06:03:54.526Z,53.60
2018-11-10T06:06:23.474Z,54.17
2018-11-10T06:08:51.838Z,53.50
2018-11-10T06:11:20.189Z,50.57
2018-11-10T06:13:47.965Z,50.87
2018-11-10T06:16:16.426Z,54.37
2018-11-10T06:18:45.275Z,55.03
2018-11-10T06:21:13.580Z,116.57
2018-11-10T06:23:41.941Z,123.13
2018-11-10T06:26:10.365Z,60.03
2018-11-10T06:28:38.657Z,53.87
2018-11-10T06:31:06.409Z,56.23
2018-11-10T06:33:35.331Z,55.00
2018-11-10T06:36:03.086Z,59.00
2018-11-10T06:38:31.999Z,57.00
2018-11-10T06:40:59.784Z,53.77
2018-11-10T06:43:29.543Z,54.27
2018-11-10T06:45:57.321Z,58.37
2018-11-10T06:48:25.687Z,63.30
2018-11-10T06:50:53.427Z,69.13
2018-11-10T06:53:21.754Z,63.87
2018-11-10T06:55:50.098Z,62.57
2018-11-10T06:58:19.026Z,56.67
2018-11-10T07:00:46.769Z,65.40
2018-11-10T07:03:15.788Z,59.50
2018-11-10T07:05:43.489Z,59.47
2018-11-10T07:08:12.420Z,67.80
2018-11-10T07:10:41.052Z,94.97
2018-11-10T07:13:08.525Z,109.37
2018-11-10T07:15:37.204Z,227.13
2018-11-10T07:18:05.225Z,123.40
2018-11-10T07:20:33.553Z,65.80
2018-11-10T07:23:02.506Z,61.47
2018-11-10T07:25:30.269Z,52.83
2018-11-10T07:27:59.203Z,58.87
2018-11-10T07:30:27.537Z,57.40
2018-11-10T07:32:55.869Z,59.33
2018-11-10T07:35:23.634Z,61.73
2018-11-10T07:37:52.546Z,59.40
2018-11-10T07:40:20.395Z,70.20
2018-11-10T07:42:48.677Z,59.40
2018-11-10T07:45:17.568Z,62.83
2018-11-10T07:47:45.914Z,59.57
2018-11-10T07:50:13.669Z,63.90
2018-11-10T07:52:42.001Z,63.67
2018-11-10T07:55:12.321Z,68.47
2018-11-10T07:57:39.109Z,67.20
2018-11-10T08:00:08.011Z,65.37
2018-11-10T08:02:36.360Z,74.77
2018-11-10T08:05:05.237Z,80.77
2018-11-10T08:07:33.349Z,135.73
2018-11-10T08:10:01.135Z,87.47
2018-11-10T08:12:30.041Z,105.70
2018-11-10T08:14:58.775Z,63.57
2018-11-10T08:17:26.795Z,60.23
2018-11-10T08:19:55.016Z,60.87
2018-11-10T08:22:23.460Z,100.63
2018-11-10T08:24:51.230Z,64.00
2018-11-10T08:27:19.543Z,61.40
2018-11-10T08:29:48.452Z,67.90
2018-11-10T08:32:16.794Z,67.77
2018-11-10T08:34:44.540Z,74.33
2018-11-10T08:37:13.450Z,99.23
2018-11-10T08:39:41.789Z,86.87
2018-11-10T08:42:09.543Z,69.20
2018-11-10T08:44:38.456Z,81.53
2018-11-10T08:47:06.211Z,77.80
2018-11-10T08:49:34.541Z,73.60
2018-11-10T08:52:03.457Z,77.63
2018-11-10T08:54:31.224Z,132.53
2018-11-10T08:57:00.155Z,78.20
2018-11-10T08:59:27.914Z,71.70
2018-11-10T09:01:56.829Z,73.53
2018-11-10T09:04:24.633Z,71.63
2018-11-10T09:06:53.609Z,79.20
2018-11-10T09:09:21.946Z,80.43
2018-11-10T09:11:49.781Z,117.73
2018-11-10T09:14:18.062Z,85.30
2018-11-10T09:16:46.980Z,83.83
2018-11-10T09:19:15.353Z,81.03
2018-11-10T09:21:43.156Z,76.30
2018-11-10T09:24:12.045Z,73.13
2018-11-10T09:26:41.272Z,71.50
2018-11-10T09:29:09.635Z,75.70
2018-11-10T09:31:37.972Z,75.60
2018-11-10T09:34:06.333Z,74.60
2018-11-10T09:36:34.209Z,75.87
2018-11-10T09:39:03.004Z,75.90
2018-11-10T09:41:31.658Z,76.17
2018-11-10T09:44:00.273Z,81.50
2018-11-10T09:46:28.597Z,79.50
2018-11-10T09:48:56.950Z,75.90
2018-11-10T09:51:24.698Z,86.73
2018-11-10T09:53:53.036Z,74.00
2018-11-10T09:56:21.994Z,81.00
2018-11-10T09:58:49.759Z,80.30
2018-11-10T10:01:18.833Z,81.30
2018-11-10T10:03:47.172Z,79.07
2018-11-10T10:06:15.504Z,76.10
2018-11-10T10:08:43.951Z,78.63
2018-11-10T10:11:12.268Z,78.30
2018-11-10T10:13:40.046Z,73.07
2018-11-10T10:16:09.010Z,70.60
2018-11-10T10:18:36.973Z,92.03
2018-11-10T10:21:05.649Z,79.73
2018-11-10T10:23:33.983Z,79.90
2018-11-10T10:26:02.335Z,79.03
2018-11-10T10:28:30.686Z,74.37
2018-11-10T10:30:58.429Z,81.03
2018-11-10T10:33:27.344Z,81.90
2018-11-10T10:35:55.665Z,78.50
2018-11-10T10:38:23.425Z,75.20
2018-11-10T10:40:52.359Z,89.63
2018-11-10T10:43:20.108Z,87.30
2018-11-10T10:45:49.034Z,90.33
2018-11-10T10:48:17.376Z,85.33
2018-11-10T10:50:45.172Z,84.90
2018-11-10T10:53:13.510Z,89.63
2018-11-10T10:55:42.496Z,86.73
2018-11-10T10:58:10.216Z,90.90
2018-11-10T11:00:39.129Z,96.10
2018-11-10T11:03:07.019Z,101.43
2018-11-10T11:05:35.889Z,149.30
2018-11-10T11:08:03.975Z,112.93
2018-11-10T11:10:32.013Z,136.47
2018-11-10T11:13:00.352Z,93.87
2018-11-10T11:15:29.426Z,91.17
2018-11-10T11:17:57.606Z,99.00
2018-11-10T11:20:25.936Z,94.03
2018-11-10T11:22:53.692Z,127.03
2018-11-10T11:25:22.601Z,98.30
2018-11-10T11:27:50.363Z,88.93
2018-11-10T11:30:19.331Z,95.40
2018-11-10T11:32:47.758Z,94.10
2018-11-10T11:35:15.523Z,99.57
2018-11-10T11:37:44.460Z,115.33
2018-11-10T11:40:12.809Z,96.87
2018-11-10T11:42:41.166Z,90.40
2018-11-10T11:45:09.494Z,97.73
2018-11-10T11:47:37.244Z,102.00
2018-11-10T11:50:05.578Z,95.37
2018-11-10T11:52:34.535Z,94.33
2018-11-10T11:55:02.873Z,94.73
2018-11-10T11:57:31.272Z,91.30
2018-11-10T11:59:59.579Z,124.37
2018-11-10T12:02:27.373Z,100.83
2018-11-10T12:04:55.712Z,115.27
2018-11-10T12:07:24.637Z,106.33
2018-11-10T12:09:52.426Z,105.43
2018-11-10T12:12:21.435Z,91.57
2018-11-10T12:14:49.718Z,95.10
2018-11-10T12:17:18.059Z,96.53
2018-11-10T12:19:46.391Z,96.70
2018-11-10T12:22:14.239Z,94.27
2018-11-10T12:24:42.531Z,87.60
2018-11-10T12:27:11.454Z,93.73
2018-11-10T12:29:39.228Z,86.60
2018-11-10T12:32:07.573Z,93.20
2018-11-10T12:34:35.888Z,87.83
2018-11-10T12:37:04.259Z,91.47
2018-11-10T12:39:33.214Z,91.43
2018-11-10T12:42:01.550Z,95.13
2018-11-10T12:44:29.894Z,86.80
2018-11-10T12:46:57.643Z,89.90
2018-11-10T12:49:26.581Z,86.67
2018-11-10T12:51:54.327Z,83.63
2018-11-10T12:54:23.245Z,95.63
2018-11-10T12:56:51.580Z,103.37
2018-11-10T12:59:19.705Z,84.90
2018-11-10T13:01:48.434Z,93.17
2018-11-10T13:04:16.999Z,88.67
2018-11-10T13:06:45.380Z,82.20
2018-11-10T13:09:13.724Z,85.80
2018-11-10T13:11:41.629Z,85.93
2018-11-10T13:14:10.411Z,89.50
2018-11-10T13:16:38.819Z,76.33
2018-11-10T13:19:06.648Z,85.73
2018-11-10T13:21:35.891Z,82.03
2018-11-10T13:24:04.410Z,92.87
2018-11-10T13:26:32.984Z,90.20
2018-11-10T13:29:01.467Z,91.20
2018-11-10T13:31:29.990Z,94.47
2018-11-10T13:33:59.708Z,89.37
2018-11-10T13:36:28.364Z,128.87
2018-11-10T13:38:57.081Z,94.97
2018-11-10T13:41:25.513Z,99.57
2018-11-10T13:43:55.569Z,87.97
2018-11-10T13:46:22.649Z,88.47
2018-11-10T13:48:51.003Z,84.00
2018-11-10T13:53:48.093Z,82.90
2018-11-10T13:56:16.746Z,88.73
2018-11-10T13:58:45.146Z,84.90
2018-11-10T14:01:12.905Z,87.93
2018-11-10T14:03:41.862Z,81.53
2018-11-10T14:06:10.536Z,84.93
2018-11-10T14:08:39.029Z,85.67
2018-11-10T14:11:07.780Z,80.00
2018-11-10T14:13:36.142Z,85.90
2018-11-10T14:16:05.129Z,82.00
2018-11-10T14:18:33.713Z,82.83
2018-11-10T14:21:03.051Z,83.70
2018-11-10T14:23:31.205Z,90.80
2018-11-10T14:25:59.565Z,89.60
2018-11-10T14:28:28.894Z,88.87
2018-11-10T14:30:58.143Z,85.37
2018-11-10T14:33:25.675Z,86.10
2018-11-10T14:35:54.384Z,83.47
2018-11-10T14:38:22.809Z,87.63
2018-11-10T14:40:51.422Z,87.87
2018-11-10T14:43:20.288Z,84.67
2018-11-10T14:45:47.885Z,95.27
2018-11-10T14:48:16.836Z,92.30
2018-11-10T14:50:44.627Z,87.70
2018-11-10T14:53:13.061Z,93.03
2018-11-10T14:55:42.038Z,92.23
2018-11-10T14:58:10.654Z,99.40
2018-11-10T15:00:39.148Z,101.83
2018-11-10T15:03:07.887Z,119.30
2018-11-10T15:05:36.508Z,97.27
2018-11-10T15:08:04.929Z,103.80
2018-11-10T15:10:33.279Z,106.33
2018-11-10T15:13:01.983Z,100.83
2018-11-10T15:15:30.375Z,96.37
2018-11-10T15:17:58.787Z,107.33
2018-11-10T15:20:27.093Z,103.47
2018-11-10T15:22:56.641Z,100.33
2018-11-10T15:25:25.184Z,101.30
2018-11-10T15:27:53.765Z,103.30
2018-11-10T15:30:21.521Z,132.93
2018-11-10T15:32:50.441Z,143.03
2018-11-10T15:35:18.800Z,105.87
2018-11-10T15:37:47.664Z,91.93
2018-11-10T15:40:15.425Z,93.43
2018-11-10T15:42:44.667Z,94.20
2018-11-10T15:45:13.638Z,94.80
2018-11-10T15:47:41.968Z,101.30
2018-11-10T15:50:10.480Z,102.07
2018-11-10T15:52:39.164Z,108.83
2018-11-10T15:55:07.460Z,106.33
2018-11-10T15:57:35.801Z,102.60
2018-11-10T16:00:04.574Z,118.20
2018-11-10T16:02:32.916Z,106.20
2018-11-10T16:05:00.680Z,107.00
2018-11-10T16:07:29.604Z,106.87
2018-11-10T16:09:58.035Z,106.10
2018-11-10T16:12:26.337Z,107.50
2018-11-10T16:14:54.092Z,108.43
2018-11-10T16:17:22.449Z,497.20
2018-11-10T16:19:51.438Z,126.27
2018-11-10T16:22:19.197Z,110.70
2018-11-10T16:24:48.124Z,110.67
2018-11-10T16:27:15.876Z,117.77
2018-11-10T16:29:44.233Z,114.87
2018-11-10T16:32:12.580Z,108.20
2018-11-10T16:34:41.583Z,117.53
2018-11-10T16:37:09.887Z,119.23
2018-11-10T16:39:37.676Z,113.93
2018-11-10T16:42:06.282Z,117.00
2018-11-10T16:44:34.687Z,119.40
2018-11-10T16:47:03.565Z,126.63
2018-11-10T16:49:31.335Z,124.63
2018-11-10T16:52:00.251Z,127.27
2018-11-10T16:54:28.005Z,125.93
2018-11-10T16:56:56.950Z,126.40
2018-11-10T16:59:25.285Z,118.37
2018-11-10T17:01:53.046Z,120.63
2018-11-10T17:04:21.977Z,118.43
2018-11-10T17:06:50.356Z,119.47
2018-11-10T17:09:19.297Z,118.77
2018-11-10T17:11:47.053Z,118.33
2018-11-10T17:14:15.975Z,120.60
2018-11-10T17:16:43.796Z,118.07
2018-11-10T17:19:12.727Z,126.47
2018-11-10T17:21:41.181Z,123.83
2018-11-10T17:24:09.796Z,127.07
2018-11-10T17:26:37.558Z,193.60
2018-11-10T17:29:06.519Z,134.67
2018-11-10T17:31:35.236Z,122.17
2018-11-10T17:34:03.012Z,134.80
2018-11-10T17:36:31.941Z,129.97
2018-11-10T17:38:59.738Z,135.37
2018-11-10T17:41:28.119Z,136.30
2018-11-10T17:43:56.487Z,146.53
2018-11-10T17:46:25.490Z,161.00
2018-11-10T17:48:53.236Z,178.07
2018-11-10T17:51:21.598Z,175.87
2018-11-10T17:53:50.524Z,139.37
2018-11-10T17:56:18.884Z,128.07
2018-11-10T17:58:46.728Z,126.03
2018-11-10T18:01:15.582Z,120.73
2018-11-10T18:03:43.982Z,120.77
2018-11-10T18:06:12.320Z,124.07
2018-11-10T18:08:40.110Z,103.50
2018-11-10T18:11:08.447Z,113.30
2018-11-10T18:13:36.782Z,108.70
2018-11-10T18:16:05.786Z,115.67
2018-11-10T18:18:34.124Z,117.63
2018-11-10T18:21:02.461Z,116.13
2018-11-10T18:23:30.822Z,113.03
2018-11-10T18:25:59.258Z,142.10
2018-11-10T18:28:28.189Z,135.30
2018-11-10T18:30:56.716Z,117.47
2018-11-10T18:33:25.601Z,126.23
2018-11-10T18:35:54.572Z,131.03
2018-11-10T18:38:22.423Z,118.20
2018-11-10T18:40:51.404Z,124.43
2018-11-10T18:43:19.109Z,124.30
2018-11-10T18:45:48.140Z,125.17
2018-11-10T18:48:16.480Z,131.33
2018-11-10T18:50:46.631Z,137.70
2018-11-10T18:53:14.967Z,134.07
2018-11-10T18:55:43.328Z,122.23
2018-11-10T18:58:11.950Z,243.80
2018-11-10T19:00:40.261Z,297.20
2018-11-10T19:03:09.154Z,175.40
2018-11-10T19:05:37.509Z,177.27
2018-11-10T19:08:05.276Z,142.07
2018-11-10T19:10:34.202Z,146.73
2018-11-10T19:13:02.753Z,147.03
2018-11-10T19:15:31.185Z,143.80
2018-11-10T19:17:59.262Z,150.37
2018-11-10T19:20:29.488Z,144.67
2018-11-10T19:22:58.818Z,149.97
2018-11-10T19:25:27.272Z,154.10
2018-11-10T19:27:55.876Z,159.00
2018-11-10T19:30:24.841Z,150.43
2018-11-10T19:32:53.135Z,148.77
2018-11-10T19:35:21.451Z,148.57
2018-11-10T19:37:49.269Z,141.23
2018-11-10T19:40:18.212Z,145.77
2018-11-10T19:42:46.042Z,151.40
2018-11-10T19:45:14.986Z,141.17
2018-11-10T19:47:42.731Z,150.10
2018-11-10T19:50:11.134Z,147.27
2018-11-10T19:52:40.047Z,148.97
2018-11-10T19:55:08.395Z,148.73
2018-11-10T19:57:36.745Z,155.00
2018-11-10T20:00:05.076Z,155.47
2018-11-10T20:02:33.426Z,154.13
2018-11-10T20:05:01.291Z,147.80
2018-11-10T20:07:30.013Z,142.67
2018-11-10T20:09:58.940Z,136.00
2018-11-10T20:12:26.782Z,140.03
2018-11-10T20:14:55.829Z,144.03
2018-11-10T20:17:24.160Z,129.03
2018-11-10T20:19:51.919Z,133.60
2018-11-10T20:22:21.124Z,145.97
2018-11-10T20:24:49.338Z,138.83
2018-11-10T20:27:17.722Z,137.77
2018-11-10T20:29:46.302Z,136.87
2018-11-10T20:32:14.085Z,126.70
2018-11-10T20:34:43.212Z,116.53
2018-11-10T20:37:11.551Z,112.07
2018-11-10T20:39:39.896Z,122.97
2018-11-10T20:42:08.296Z,116.30
2018-11-10T20:44:36.729Z,121.23
2018-11-10T20:47:04.505Z,125.47
2018-11-10T20:49:33.783Z,129.27
2018-11-10T20:52:02.426Z,129.43
2018-11-10T20:54:32.287Z,131.57
2018-11-10T20:57:00.139Z,134.23
2018-11-10T20:59:28.527Z,126.97
2018-11-10T21:01:56.877Z,127.87
2018-11-10T21:04:25.235Z,114.33
2018-11-10T21:06:53.371Z,122.37
2018-11-10T21:09:21.885Z,110.13
2018-11-10T21:11:50.627Z,107.97
2018-11-10T21:14:18.382Z,108.03
2018-11-10T21:16:46.718Z,114.50
2018-11-10T21:19:15.665Z,113.07
2018-11-10T21:21:44.198Z,117.40
2018-11-10T21:24:11.948Z,115.63
2018-11-10T21:26:40.914Z,114.53
2018-11-10T21:29:10.408Z,107.70
2018-11-10T21:31:38.664Z,115.97
2018-11-10T21:34:07.141Z,115.43
2018-11-10T21:36:35.490Z,118.50
2018-11-10T21:39:03.861Z,113.17
2018-11-10T21:41:32.292Z,160.90
2018-11-10T21:44:00.776Z,117.23
2018-11-10T21:46:29.341Z,115.07
2018-11-10T21:48:57.793Z,111.53
2018-11-10T21:51:26.244Z,136.03
2018-11-10T21:53:54.640Z,124.07
2018-11-10T21:56:23.198Z,111.33
2018-11-10T21:58:51.760Z,117.90
2018-11-10T22:01:20.098Z,117.80
2018-11-10T22:03:47.910Z,120.43
2018-11-10T22:06:16.997Z,119.03
2018-11-10T22:08:45.412Z,115.20
2018-11-10T22:11:13.702Z,122.43
2018-11-10T22:13:42.227Z,116.13
2018-11-10T22:16:10.620Z,121.37
2018-11-10T22:18:39.009Z,138.63
2018-11-10T22:21:07.652Z,121.87
2018-11-10T22:23:36.732Z,114.43
2018-11-10T22:26:04.970Z,120.10
2018-11-10T22:28:32.738Z,116.70
2018-11-10T22:31:01.794Z,113.57
2018-11-10T22:33:31.993Z,120.17
2018-11-10T22:36:03.202Z,121.70
2018-11-10T22:38:32.373Z,123.20
2018-11-10T22:41:00.483Z,121.57
2018-11-10T22:43:29.573Z,118.63
2018-11-10T22:45:57.910Z,127.50
2018-11-10T22:48:26.541Z,131.37
2018-11-10T22:50:54.683Z,126.90
2018-11-10T22:53:23.019Z,117.37
2018-11-10T22:55:50.929Z,130.73
2018-11-10T22:58:19.256Z,129.47
2018-11-10T23:00:48.309Z,125.83
2018-11-10T23:03:16.643Z,129.83
2018-11-10T23:05:45.022Z,120.67
2018-11-10T23:08:12.936Z,130.30
2018-11-10T23:10:41.788Z,127.40
2018-11-10T23:13:10.285Z,122.77
2018-11-10T23:15:38.749Z,125.90
2018-11-10T23:18:07.406Z,123.83
2018-11-10T23:20:35.918Z,137.00
2018-11-10T23:23:04.355Z,129.80
2018-11-10T23:25:32.689Z,127.00
2018-11-10T23:28:00.469Z,125.50
2018-11-10T23:30:29.623Z,127.37
2018-11-10T23:32:59.253Z,125.13
2018-11-10T23:35:27.631Z,120.80
2018-11-10T23:37:55.932Z,131.53
2018-11-10T23:40:23.677Z,139.13
2018-11-10T23:42:52.594Z,126.20
2018-11-10T23:45:20.349Z,137.33
2018-11-10T23:47:48.683Z,129.07
2018-11-10T23:50:17.014Z,130.13
2018-11-10T23:52:45.368Z,124.20
2018-11-10T23:55:14.269Z,129.50
2018-11-10T23:57:42.610Z,128.37
